Time;durP1;ratioP1;P1;durP2;ratioP2;P2;SDS_P1;SDS_P2;PMS_P1;PMS_P2;Temp;Humidity;BMP_temperature;BMP_pressure;BME280_temperature;BME280_humidity;BME280_pressure;Samples;Min_cycle;Max_cycle;Signal;HPM_P1;HPM_P2
2023/09/21 00:00:13;;;;;;;1.42;1.33;;;21.60;66.40;;;;;;5010920;28;20034;-80
2023/09/21 00:02:49;;;;;;;1.55;1.17;;;21.60;66.50;;;;;;4994006;28;20031;-80
2023/09/21 00:05:21;;;;;;;1.17;1.10;;;21.60;66.40;;;;;;4993607;28;20042;-80
2023/09/21 00:07:47;;;;;;;1.23;1.13;;;21.60;66.40;;;;;;4994425;28;20034;-80
2023/09/21 00:10:13;;;;;;;1.08;1.00;;;21.60;66.50;;;;;;4993925;28;20092;-80
2023/09/21 00:12:40;;;;;;;1.13;1.02;;;21.60;66.50;;;;;;5009761;28;20061;-81
2023/09/21 00:15:07;;;;;;;1.45;1.20;;;21.60;67.20;;;;;;4993973;28;20030;-80
2023/09/21 00:17:43;;;;;;;1.20;1.10;;;21.60;66.50;;;;;;4994844;28;20066;-81
2023/09/21 00:20:33;;;;;;;2.15;1.27;;;21.60;66.50;;;;;;4993451;28;20127;-81
2023/09/21 00:23:05;;;;;;;1.63;1.15;;;21.50;66.50;;;;;;4993741;28;20018;-80
2023/09/21 00:25:30;;;;;;;1.10;1.00;;;21.50;66.50;;;;;;4995118;28;20034;-80
2023/09/21 00:27:56;;;;;;;1.35;1.20;;;21.50;66.60;;;;;;4993183;28;20541;-80
2023/09/21 00:30:22;;;;;;;1.20;1.10;;;21.50;66.60;;;;;;4993025;28;20038;-80
2023/09/21 00:32:48;;;;;;;2.35;1.48;;;21.50;66.60;;;;;;4993476;28;20035;-80
2023/09/21 00:35:15;;;;;;;1.52;1.15;;;21.40;66.60;;;;;;4976912;28;20054;-80
2023/09/21 00:37:42;;;;;;;1.10;1.00;;;21.40;66.60;;;;;;4993661;28;20042;-81
2023/09/21 00:40:18;;;;;;;1.30;1.20;;;21.40;66.60;;;;;;4993931;28;20042;-81
2023/09/21 00:42:48;;;;;;;1.08;1.00;;;21.40;66.70;;;;;;5009674;28;20036;-81
2023/09/21 00:45:14;;;;;;;1.23;1.13;;;21.40;66.60;;;;;;5009839;28;20030;-82
2023/09/21 00:47:52;;;;;;;1.52;1.20;;;21.40;66.70;;;;;;4977974;28;20395;-81
2023/09/21 00:50:22;;;;;;;1.42;1.25;;;21.40;66.70;;;;;;4976945;28;20125;-80
2023/09/21 00:52:51;;;;;;;1.45;1.20;;;21.40;66.60;;;;;;4994426;28;20026;-81
2023/09/21 00:55:24;;;;;;;1.40;1.20;;;21.40;66.70;;;;;;5010275;28;20038;-81
2023/09/21 00:57:51;;;;;;;1.13;1.02;;;21.40;66.70;;;;;;5009892;28;20054;-81
2023/09/21 01:00:25;;;;;;;2.10;1.33;;;21.30;66.60;;;;;;5010282;28;20034;-81
2023/09/21 01:02:53;;;;;;;1.52;1.10;;;21.30;66.60;;;;;;4994149;28;20027;-81
2023/09/21 01:05:21;;;;;;;1.70;1.27;;;21.40;66.70;;;;;;5009307;28;20042;-81
2023/09/21 01:07:50;;;;;;;1.20;1.10;;;21.30;66.70;;;;;;4993240;28;20383;-82
2023/09/21 01:10:19;;;;;;;1.90;1.38;;;21.30;66.70;;;;;;4992786;28;20045;-81
2023/09/21 01:12:49;;;;;;;1.35;1.23;;;21.30;66.70;;;;;;5009340;28;20026;-81
2023/09/21 01:15:16;;;;;;;1.30;1.20;;;21.30;66.70;;;;;;5009278;28;20038;-81
2023/09/21 01:17:42;;;;;;;1.40;1.30;;;21.30;66.70;;;;;;5009555;28;20117;-81
2023/09/21 01:20:22;;;;;;;1.20;1.10;;;21.30;66.70;;;;;;4976742;28;20157;-81
2023/09/21 01:23:19;;;;;;;1.58;1.23;;;21.20;66.70;;;;;;4994231;28;20406;-81
2023/09/21 01:25:49;;;;;;;1.17;1.05;;;21.20;66.80;;;;;;4993361;28;20384;-80
2023/09/21 01:28:22;;;;;;;1.75;1.30;;;21.20;66.70;;;;;;5009906;28;20066;-81
2023/09/21 01:30:49;;;;;;;1.20;1.10;;;21.20;66.80;;;;;;5009457;28;20077;-81
2023/09/21 01:33:15;;;;;;;1.60;1.10;;;21.20;66.80;;;;;;4993793;28;20030;-80
2023/09/21 01:35:44;;;;;;;1.40;1.30;;;21.20;66.80;;;;;;5009157;28;20029;-80
2023/09/21 01:38:11;;;;;;;1.20;1.10;;;21.20;66.80;;;;;;4992782;28;20129;-81
2023/09/21 01:40:38;;;;;;;1.35;1.15;;;21.20;66.80;;;;;;4992690;28;20057;-81
2023/09/21 01:43:09;;;;;;;1.40;1.27;;;21.10;66.70;;;;;;4992500;28;20558;-80
2023/09/21 01:45:37;;;;;;;1.40;1.15;;;21.10;66.80;;;;;;4993232;28;20142;-82
2023/09/21 01:48:11;;;;;;;1.45;1.20;;;21.10;66.80;;;;;;4976741;28;20046;-81
2023/09/21 01:50:46;;;;;;;1.20;1.02;;;21.10;66.80;;;;;;4977651;28;20496;-81
2023/09/21 01:53:16;;;;;;;1.67;1.20;;;21.10;66.80;;;;;;5012724;28;20041;-80
2023/09/21 01:55:44;;;;;;;1.35;1.08;;;21.10;66.80;;;;;;4996255;28;20037;-81
2023/09/21 01:58:11;;;;;;;1.30;1.10;;;21.10;66.80;;;;;;5012668;28;20033;-81
2023/09/21 02:00:48;;;;;;;1.10;1.00;;;21.10;66.80;;;;;;4996791;28;20097;-81
2023/09/21 02:03:17;;;;;;;1.88;1.20;;;21.10;66.90;;;;;;4996607;28;20034;-80
2023/09/21 02:05:48;;;;;;;1.20;1.10;;;21.10;66.80;;;;;;4997312;28;20038;-80
2023/09/21 02:08:16;;;;;;;1.35;1.10;;;21.10;66.80;;;;;;5005903;28;20048;-82
2023/09/21 02:10:45;;;;;;;1.23;1.10;;;21.00;66.80;;;;;;5026190;28;20042;-82
2023/09/21 02:13:10;;;;;;;1.70;1.10;;;21.00;66.90;;;;;;5016676;28;20027;-81
2023/09/21 02:15:38;;;;;;;0.95;0.93;;;21.00;66.90;;;;;;4981142;28;20053;-80
2023/09/21 02:18:05;;;;;;;1.20;1.10;;;21.00;66.90;;;;;;5017248;28;20039;-81
2023/09/21 02:20:34;;;;;;;1.20;1.10;;;21.00;66.90;;;;;;5019481;28;20038;-80
2023/09/21 02:23:02;;;;;;;1.77;1.10;;;21.00;66.90;;;;;;5016879;28;20035;-82
2023/09/21 02:25:32;;;;;;;1.23;1.13;;;21.00;66.90;;;;;;5002139;28;20037;-81
2023/09/21 02:27:58;;;;;;;1.58;1.30;;;20.90;66.90;;;;;;5000171;28;20026;-81
2023/09/21 02:30:25;;;;;;;1.33;1.08;;;20.90;66.80;;;;;;5013589;28;20419;-80
2023/09/21 02:32:54;;;;;;;1.05;0.98;;;21.00;66.90;;;;;;5012273;28;20030;-81
2023/09/21 02:35:23;;;;;;;1.38;1.27;;;20.90;66.90;;;;;;4996364;28;20030;-81
2023/09/21 02:37:50;;;;;;;1.63;1.23;;;20.90;66.90;;;;;;4995497;28;20033;-81
2023/09/21 02:40:19;;;;;;;1.33;1.00;;;20.90;66.90;;;;;;4995568;28;20487;-81
2023/09/21 02:42:50;;;;;;;1.20;1.10;;;20.90;66.90;;;;;;5011666;28;20043;-81
2023/09/21 02:45:23;;;;;;;1.33;1.20;;;20.90;66.90;;;;;;4996411;28;20031;-80
2023/09/21 02:47:51;;;;;;;1.13;1.00;;;20.90;67.00;;;;;;4995176;28;20030;-81
2023/09/21 02:50:22;;;;;;;1.67;1.13;;;20.90;66.90;;;;;;5010983;28;20471;-81
2023/09/21 02:52:56;;;;;;;1.33;1.10;;;20.90;67.00;;;;;;4979397;28;20034;-81
2023/09/21 02:55:25;;;;;;;1.30;1.00;;;20.80;67.00;;;;;;5012327;28;20094;-81
2023/09/21 02:57:55;;;;;;;1.27;1.15;;;20.80;66.90;;;;;;4979459;28;20038;-81
2023/09/21 03:02:52;;;;;;;1.67;1.23;;;20.80;67.00;;;;;;5011235;28;20088;-81
2023/09/21 03:05:18;;;;;;;1.20;1.10;;;20.80;67.00;;;;;;4995209;28;20034;-81
2023/09/21 03:07:45;;;;;;;0.90;0.90;;;20.80;67.00;;;;;;4994707;28;20406;-81
2023/09/21 03:10:12;;;;;;;1.13;1.05;;;20.80;67.00;;;;;;5011174;28;20045;-81
2023/09/21 03:12:38;;;;;;;1.20;1.10;;;20.80;67.00;;;;;;4995007;28;20041;-81
2023/09/21 03:15:15;;;;;;;1.13;1.02;;;20.80;67.00;;;;;;4994668;28;20035;-82
2023/09/21 03:17:42;;;;;;;1.30;0.95;;;20.80;67.10;;;;;;4995720;28;20026;-82
2023/09/21 03:23:10;;;;;;;1.05;0.88;;;20.80;67.00;;;;;;4990115;28;20038;-81
2023/09/21 03:25:40;;;;;;;1.20;1.10;;;20.80;67.00;;;;;;4978157;28;20133;-82
2023/09/21 03:28:15;;;;;;;1.65;1.23;;;20.80;67.00;;;;;;4995923;28;20116;-81
2023/09/21 03:30:45;;;;;;;1.50;1.30;;;20.80;67.10;;;;;;4994867;28;20475;-81
2023/09/21 03:33:12;;;;;;;1.27;1.00;;;20.80;67.10;;;;;;4994053;28;20034;-81
2023/09/21 03:35:38;;;;;;;1.50;0.90;;;20.80;67.10;;;;;;4994598;28;20487;-81
2023/09/21 03:38:14;;;;;;;1.30;1.20;;;20.70;67.10;;;;;;4978492;28;20042;-81
2023/09/21 03:40:43;;;;;;;1.58;1.20;;;20.70;67.10;;;;;;4979501;28;20126;-81
2023/09/21 03:43:10;;;;;;;1.27;1.10;;;20.80;67.10;;;;;;5010416;28;20081;-81
2023/09/21 03:45:41;;;;;;;0.88;0.88;;;20.80;67.10;;;;;;4978147;28;20034;-81
2023/09/21 03:48:08;;;;;;;1.63;1.20;;;20.80;67.20;;;;;;4995756;28;20471;-81
2023/09/21 03:50:39;;;;;;;1.85;1.10;;;20.70;67.10;;;;;;4993871;28;20094;-81
2023/09/21 03:53:08;;;;;;;1.30;1.00;;;20.70;67.10;;;;;;5010386;28;20034;-81
2023/09/21 03:55:34;;;;;;;1.05;1.00;;;20.80;67.80;;;;;;4993931;28;20056;-81
2023/09/21 03:58:01;;;;;;;1.20;1.10;;;20.70;67.10;;;;;;4995844;28;20034;-82
2023/09/21 04:03:10;;;;;;;1.67;1.20;;;20.70;67.20;;;;;;4994683;28;20070;-81
2023/09/21 04:05:46;;;;;;;1.73;1.40;;;20.70;67.20;;;;;;4980425;28;20060;-81
2023/09/21 04:08:12;;;;;;;1.30;1.20;;;20.70;67.20;;;;;;4977582;28;20041;-81
2023/09/21 04:10:37;;;;;;;1.27;1.17;;;20.70;67.20;;;;;;5010063;28;20042;-82
2023/09/21 04:13:05;;;;;;;1.20;1.10;;;20.70;67.20;;;;;;4977665;28;20379;-79
2023/09/21 04:15:31;;;;;;;1.58;1.13;;;20.70;67.20;;;;;;4994648;28;20031;-81
2023/09/21 04:17:57;;;;;;;1.20;1.10;;;20.70;67.20;;;;;;5009990;28;20475;-81
2023/09/21 04:20:23;;;;;;;1.27;1.00;;;20.70;67.20;;;;;;4993803;28;20058;-81
2023/09/21 04:22:52;;;;;;;0.90;0.90;;;20.70;67.20;;;;;;4993810;28;20038;-80
2023/09/21 04:25:18;;;;;;;1.70;1.20;;;20.70;67.20;;;;;;5009803;28;20030;-80
2023/09/21 04:27:48;;;;;;;1.30;1.10;;;20.70;67.20;;;;;;4977355;28;20041;-81
2023/09/21 04:30:16;;;;;;;1.38;1.20;;;20.70;67.30;;;;;;4993482;28;20061;-82
2023/09/21 04:32:46;;;;;;;1.88;1.30;;;20.80;67.30;;;;;;5009966;28;20062;-81
2023/09/21 04:35:13;;;;;;;1.30;1.10;;;20.80;67.20;;;;;;4977579;28;20129;-83
2023/09/21 04:37:39;;;;;;;1.10;1.00;;;20.70;67.20;;;;;;4993829;28;20034;-82
2023/09/21 04:40:10;;;;;;;1.40;1.05;;;20.80;67.30;;;;;;4992994;28;20092;-81
2023/09/21 04:42:47;;;;;;;1.58;1.48;;;20.80;67.30;;;;;;4993399;28;20023;-81
2023/09/21 04:45:22;;;;;;;1.35;1.10;;;20.80;67.30;;;;;;4994925;28;20030;-80
2023/09/21 04:47:51;;;;;;;1.30;1.20;;;20.80;67.20;;;;;;4993509;28;20471;-81
2023/09/21 04:50:18;;;;;;;1.38;1.10;;;20.70;67.20;;;;;;4998122;28;20054;-82
2023/09/21 04:52:50;;;;;;;1.10;1.00;;;20.80;67.30;;;;;;5013075;28;20038;-80
2023/09/21 04:55:17;;;;;;;1.58;1.15;;;20.80;67.30;;;;;;4993503;28;20049;-80
2023/09/21 04:57:44;;;;;;;1.35;1.20;;;20.80;67.30;;;;;;4993393;28;20135;-79
2023/09/21 05:00:12;;;;;;;1.77;1.30;;;20.80;67.30;;;;;;5009328;28;20042;-79
2023/09/21 05:02:38;;;;;;;1.20;1.10;;;20.80;67.30;;;;;;5009509;28;20049;-79
2023/09/21 05:05:04;;;;;;;1.90;1.10;;;20.80;67.30;;;;;;4993464;28;20031;-82
2023/09/21 05:07:30;;;;;;;1.35;1.10;;;20.80;67.30;;;;;;4993363;28;20032;-80
2023/09/21 05:09:56;;;;;;;1.25;1.15;;;20.80;67.30;;;;;;5009398;28;20424;-80
2023/09/21 05:12:22;;;;;;;1.10;1.00;;;20.80;67.30;;;;;;4993790;28;20133;-83
2023/09/21 05:14:48;;;;;;;1.25;1.10;;;20.80;67.20;;;;;;4993290;28;20153;-81
2023/09/21 05:17:15;;;;;;;1.23;1.13;;;20.80;67.20;;;;;;4976534;28;20034;-81
2023/09/21 05:19:41;;;;;;;1.58;1.30;;;20.80;67.20;;;;;;4992804;28;20039;-81
2023/09/21 05:22:11;;;;;;;1.20;1.10;;;20.80;67.30;;;;;;5010286;28;20107;-80
2023/09/21 05:24:37;;;;;;;1.40;1.08;;;20.80;67.30;;;;;;5010963;28;20030;-81
2023/09/21 05:27:03;;;;;;;1.20;1.10;;;20.80;67.30;;;;;;5014545;28;20456;-81
2023/09/21 05:29:30;;;;;;;1.58;1.20;;;20.80;67.20;;;;;;5003012;28;20089;-82
2023/09/21 05:31:56;;;;;;;1.55;1.20;;;20.80;67.30;;;;;;5006074;28;20030;-82
2023/09/21 05:34:24;;;;;;;1.13;1.05;;;20.80;67.30;;;;;;5021587;28;20094;-84
2023/09/21 05:36:51;;;;;;;1.55;1.27;;;20.80;67.30;;;;;;4968883;28;20035;-82
2023/09/21 05:39:19;;;;;;;1.50;1.20;;;20.80;67.30;;;;;;4997473;28;20124;-81
2023/09/21 05:41:48;;;;;;;1.30;1.20;;;20.80;67.30;;;;;;4980749;28;20055;-81
2023/09/21 05:44:14;;;;;;;1.70;1.20;;;20.80;67.30;;;;;;4997101;28;20034;-82
2023/09/21 05:46:40;;;;;;;1.42;1.25;;;20.80;67.30;;;;;;4997410;28;20030;-81
2023/09/21 05:49:09;;;;;;;1.60;1.30;;;20.80;67.30;;;;;;4980409;28;20035;-83
2023/09/21 05:51:39;;;;;;;1.40;1.30;;;20.80;67.30;;;;;;4996231;28;20058;-81
2023/09/21 05:54:05;;;;;;;1.67;1.33;;;20.80;67.30;;;;;;4996643;28;20402;-79
2023/09/21 05:56:32;;;;;;;1.65;1.25;;;20.80;67.30;;;;;;4996303;28;20513;-80
2023/09/21 05:59:00;;;;;;;1.23;1.10;;;20.80;67.30;;;;;;5012887;28;20502;-81
2023/09/21 06:01:31;;;;;;;2.17;1.42;;;20.80;67.30;;;;;;4996598;28;20129;-84
2023/09/21 06:03:59;;;;;;;1.85;1.48;;;20.80;67.30;;;;;;5012952;28;20030;-83
2023/09/21 06:06:28;;;;;;;1.17;1.08;;;20.80;67.30;;;;;;4980515;28;20038;-80
2023/09/21 06:08:56;;;;;;;1.23;1.00;;;20.80;67.30;;;;;;5012204;28;20114;-81
2023/09/21 06:11:22;;;;;;;1.42;1.00;;;20.80;67.30;;;;;;4996249;28;20030;-82
2023/09/21 06:13:48;;;;;;;1.67;1.30;;;20.80;67.30;;;;;;5012413;28;20042;-82
2023/09/21 06:16:14;;;;;;;1.45;1.20;;;20.80;67.30;;;;;;4980293;28;20121;-82
2023/09/21 06:18:41;;;;;;;1.63;0.95;;;20.80;67.30;;;;;;4995965;28;20058;-82
2023/09/21 06:21:06;;;;;;;1.58;1.27;;;20.80;67.30;;;;;;4979480;28;20045;-82
2023/09/21 06:23:32;;;;;;;1.38;1.23;;;20.80;67.30;;;;;;4997470;28;20023;-82
2023/09/21 06:25:59;;;;;;;1.10;1.00;;;20.80;67.30;;;;;;4999900;28;20045;-81
2023/09/21 06:28:24;;;;;;;1.38;1.13;;;20.80;67.30;;;;;;5019788;28;20034;-81
2023/09/21 06:30:51;;;;;;;1.08;0.98;;;20.80;67.90;;;;;;5004344;28;20050;-82
2023/09/21 06:33:18;;;;;;;1.48;1.17;;;20.80;67.30;;;;;;4987705;28;20038;-80
2023/09/21 06:35:44;;;;;;;1.42;1.10;;;20.80;67.30;;;;;;5014898;28;20061;-82
2023/09/21 06:38:10;;;;;;;1.38;1.00;;;20.80;67.30;;;;;;4998526;28;20026;-81
2023/09/21 06:40:38;;;;;;;1.52;1.17;;;20.80;67.30;;;;;;4997560;28;20041;-81
2023/09/21 06:43:07;;;;;;;1.42;1.30;;;20.80;67.30;;;;;;5012713;28;20030;-81
2023/09/21 06:45:34;;;;;;;1.20;1.10;;;20.80;67.30;;;;;;4995360;28;20031;-81
2023/09/21 06:48:01;;;;;;;1.98;1.40;;;20.80;67.30;;;;;;4979570;28;20026;-81
2023/09/21 06:50:27;;;;;;;1.70;1.33;;;20.80;67.30;;;;;;4979507;28;20053;-81
2023/09/21 06:52:53;;;;;;;2.40;1.20;;;20.80;67.30;;;;;;4980100;28;20121;-79
2023/09/21 06:55:19;;;;;;;1.58;1.23;;;20.80;67.30;;;;;;4995540;28;20479;-82
2023/09/21 06:57:45;;;;;;;1.23;1.13;;;20.80;67.40;;;;;;4995643;28;20066;-82
2023/09/21 07:00:11;;;;;;;1.10;1.00;;;20.80;67.30;;;;;;4995255;28;20093;-80
2023/09/21 07:02:37;;;;;;;1.30;1.17;;;20.80;67.40;;;;;;4995015;28;20077;-81
2023/09/21 07:05:03;;;;;;;1.73;1.20;;;20.80;67.40;;;;;;4962601;28;20062;-81
2023/09/21 07:07:30;;;;;;;1.77;1.10;;;20.80;67.40;;;;;;4996349;28;20026;-81
2023/09/21 07:09:56;;;;;;;1.50;1.25;;;20.80;67.40;;;;;;4979024;28;20038;-81
2023/09/21 07:12:22;;;;;;;1.20;1.10;;;20.80;67.40;;;;;;4995299;28;20031;-81
2023/09/21 07:14:49;;;;;;;1.27;1.10;;;20.80;67.40;;;;;;4995002;28;20093;-81
2023/09/21 07:17:16;;;;;;;1.30;1.20;;;20.80;67.40;;;;;;4978815;28;20038;-81
2023/09/21 07:19:42;;;;;;;1.55;1.30;;;20.80;67.40;;;;;;5012281;28;20042;-82
2023/09/21 07:22:08;;;;;;;1.73;1.13;;;20.80;67.40;;;;;;4999132;28;20387;-81
2023/09/21 07:24:34;;;;;;;1.13;1.02;;;20.80;67.40;;;;;;4997934;28;20034;-83
2023/09/21 07:27:00;;;;;;;1.77;1.35;;;20.80;67.40;;;;;;5010990;28;20034;-81
2023/09/21 07:29:27;;;;;;;1.50;1.20;;;20.80;67.40;;;;;;5011048;28;20041;-82
2023/09/21 07:31:53;;;;;;;1.67;1.27;;;20.80;67.50;;;;;;5010274;28;20113;-83
2023/09/21 07:34:19;;;;;;;1.23;1.02;;;20.90;67.50;;;;;;4994683;28;20033;-81
2023/09/21 07:36:46;;;;;;;1.20;1.10;;;20.80;67.50;;;;;;5010912;28;20038;-82
2023/09/21 07:39:17;;;;;;;1.50;1.20;;;20.80;67.50;;;;;;4994401;28;20452;-81
2023/09/21 07:41:46;;;;;;;1.92;1.13;;;20.80;67.60;;;;;;4978320;28;20030;-82
2023/09/21 07:44:12;;;;;;;1.27;1.17;;;20.90;67.60;;;;;;4978414;28;20044;-81
2023/09/21 07:46:38;;;;;;;1.17;1.10;;;20.80;67.50;;;;;;4978617;28;20117;-82
2023/09/21 07:49:07;;;;;;;1.85;1.38;;;20.80;67.50;;;;;;4994063;28;20058;-81
2023/09/21 07:51:33;;;;;;;1.20;1.10;;;20.80;67.60;;;;;;4978094;28;20064;-82
2023/09/21 07:54:00;;;;;;;1.10;1.00;;;20.80;67.60;;;;;;5010667;28;20038;-82
2023/09/21 07:56:27;;;;;;;1.90;1.27;;;20.80;67.60;;;;;;4994211;28;20057;-80
2023/09/21 07:58:53;;;;;;;1.00;1.00;;;20.80;67.60;;;;;;4994301;28;20026;-82
2023/09/21 08:01:19;;;;;;;1.20;1.10;;;20.90;67.60;;;;;;4978374;28;20080;-82
2023/09/21 08:03:46;;;;;;;1.50;1.20;;;20.80;67.60;;;;;;4994251;28;20065;-81
2023/09/21 08:06:12;;;;;;;1.63;1.10;;;20.80;67.60;;;;;;4994226;28;20031;-81
2023/09/21 08:08:38;;;;;;;1.23;1.13;;;20.80;67.60;;;;;;4978303;28;20467;-82
2023/09/21 08:11:04;;;;;;;1.30;1.20;;;20.90;67.70;;;;;;4995086;28;20463;-82
2023/09/21 08:13:30;;;;;;;1.38;1.10;;;20.80;67.60;;;;;;4978401;28;20502;-83
2023/09/21 08:15:57;;;;;;;1.80;1.23;;;20.90;67.70;;;;;;5010296;28;20471;-82
2023/09/21 08:18:22;;;;;;;1.40;1.30;;;20.80;67.70;;;;;;4994222;28;20030;-82
2023/09/21 08:20:48;;;;;;;1.58;1.30;;;20.80;67.70;;;;;;4993565;28;20046;-81
2023/09/21 08:23:14;;;;;;;1.83;1.20;;;20.90;67.70;;;;;;4995511;28;20031;-81
2023/09/21 08:25:40;;;;;;;1.35;1.13;;;20.80;67.70;;;;;;4994348;28;20034;-82
2023/09/21 08:28:07;;;;;;;1.02;1.00;;;20.80;67.70;;;;;;5009872;28;20459;-82
2023/09/21 08:30:33;;;;;;;1.63;1.20;;;20.90;67.80;;;;;;4994788;28;20030;-82
2023/09/21 08:33:00;;;;;;;2.08;1.30;;;20.80;67.80;;;;;;4994611;28;20128;-82
2023/09/21 08:35:26;;;;;;;1.52;1.15;;;20.90;67.90;;;;;;4993455;28;20475;-80
2023/09/21 08:37:52;;;;;;;1.38;1.25;;;20.90;67.80;;;;;;5010304;28;20089;-80
2023/09/21 08:40:22;;;;;;;1.75;1.10;;;20.80;67.80;;;;;;4993283;28;20035;-80
2023/09/21 08:42:53;;;;;;;2.60;1.40;;;20.80;67.80;;;;;;4977311;28;20030;-81
2023/09/21 08:45:22;;;;;;;1.48;1.17;;;20.90;67.90;;;;;;4994118;28;20065;-81
2023/09/21 08:47:49;;;;;;;1.60;1.30;;;20.80;67.80;;;;;;4993347;28;20015;-82
2023/09/21 08:50:15;;;;;;;2.08;1.45;;;20.80;67.90;;;;;;5009973;28;20471;-81
2023/09/21 08:52:45;;;;;;;0.95;0.95;;;20.80;67.90;;;;;;4978126;28;20050;-80
2023/09/21 08:55:14;;;;;;;1.58;1.30;;;20.90;68.00;;;;;;4998542;28;20026;-82
2023/09/21 08:57:40;;;;;;;1.33;1.20;;;20.80;67.90;;;;;;4993124;28;20042;-81
2023/09/21 09:00:09;;;;;;;1.35;1.15;;;20.90;68.00;;;;;;4993385;28;20037;-82
2023/09/21 09:02:35;;;;;;;1.77;1.20;;;20.80;68.00;;;;;;4992667;28;20034;-81
2023/09/21 09:05:07;;;;;;;1.10;1.00;;;20.80;68.00;;;;;;4961018;28;20038;-83
2023/09/21 09:07:39;;;;;;;1.40;1.17;;;20.80;68.00;;;;;;5010207;28;20046;-81
2023/09/21 09:10:10;;;;;;;1.55;1.20;;;20.80;68.00;;;;;;5009921;28;20073;-81
2023/09/21 09:12:37;;;;;;;2.10;1.30;;;20.80;68.00;;;;;;4994633;28;20085;-82
2023/09/21 09:15:05;;;;;;;1.55;1.13;;;20.80;68.00;;;;;;4976750;28;20069;-81
2023/09/21 09:17:35;;;;;;;1.30;1.20;;;20.80;68.00;;;;;;4960565;28;20133;-81
2023/09/21 09:20:03;;;;;;;1.35;1.25;;;20.80;68.10;;;;;;4994602;28;20114;-83
2023/09/21 09:22:31;;;;;;;1.98;1.40;;;20.80;68.00;;;;;;4994136;28;20031;-80
2023/09/21 09:25:05;;;;;;;1.30;1.20;;;20.80;68.10;;;;;;4993619;28;20030;-78
2023/09/21 09:27:34;;;;;;;1.77;1.30;;;20.80;68.10;;;;;;4992764;28;20027;-81
2023/09/21 09:30:00;;;;;;;1.30;1.20;;;20.90;68.20;;;;;;4992673;28;20077;-81
2023/09/21 09:32:35;;;;;;;1.23;1.13;;;20.80;68.10;;;;;;4976433;28;20035;-82
2023/09/21 09:35:05;;;;;;;1.60;1.30;;;20.90;68.20;;;;;;4994153;28;20415;-83
2023/09/21 09:37:34;;;;;;;1.30;1.20;;;20.90;68.20;;;;;;4994473;28;20118;-81
2023/09/21 09:40:18;;;;;;;1.73;1.23;;;20.80;68.20;;;;;;4992575;28;20042;-80
2023/09/21 09:42:45;;;;;;;1.52;1.40;;;20.80;68.20;;;;;;4976759;28;20035;-81
2023/09/21 09:45:24;;;;;;;1.20;1.10;;;20.80;68.20;;;;;;4993440;28;20047;-80
2023/09/21 09:48:03;;;;;;;1.33;1.23;;;20.90;68.30;;;;;;4993648;28;20410;-83
2023/09/21 09:50:35;;;;;;;1.33;1.23;;;20.90;68.30;;;;;;4993835;28;20371;-82
2023/09/21 09:53:06;;;;;;;1.27;1.15;;;20.90;68.30;;;;;;4992077;28;20046;-83
2023/09/21 09:55:35;;;;;;;1.55;1.30;;;20.80;68.30;;;;;;5009103;28;20030;-82
2023/09/21 09:58:02;;;;;;;2.08;1.20;;;20.80;68.30;;;;;;4993594;28;20109;-82
2023/09/21 10:00:30;;;;;;;1.23;1.10;;;20.90;68.30;;;;;;5008990;28;20042;-83
2023/09/21 10:02:57;;;;;;;1.20;1.10;;;20.80;68.30;;;;;;4993231;28;20034;-81
2023/09/21 10:05:27;;;;;;;1.38;1.27;;;20.80;68.30;;;;;;5009125;28;20033;-81
2023/09/21 10:07:57;;;;;;;1.42;1.30;;;20.80;69.00;;;;;;4976235;28;20034;-81
2023/09/21 10:10:32;;;;;;;1.48;1.13;;;20.80;68.30;;;;;;5008872;28;20109;-77
2023/09/21 10:12:57;;;;;;;;;;;20.80;68.30;;;;;;5012277;28;20038;-83
2023/09/21 10:15:24;;;;;;;1.10;1.00;;;20.80;68.20;;;;;;4996128;28;20329;-82
2023/09/21 10:17:55;;;;;;;2.10;1.30;;;20.80;68.20;;;;;;4995991;28;20128;-83
2023/09/21 10:20:32;;;;;;;1.77;1.15;;;20.80;68.30;;;;;;4979186;28;20122;-83
2023/09/21 10:23:09;;;;;;;1.75;1.20;;;20.80;68.30;;;;;;4997408;28;20145;-83
2023/09/21 10:25:41;;;;;;;1.27;1.13;;;20.80;68.40;;;;;;4996332;28;20074;-82
2023/09/21 10:28:28;;;;;;;1.55;1.13;;;20.80;68.40;;;;;;4996669;28;20399;-81
2023/09/21 10:30:54;;;;;;;1.55;1.10;;;20.80;68.60;;;;;;5012371;28;20035;-80
2023/09/21 10:33:22;;;;;;;1.20;1.00;;;20.80;68.50;;;;;;4979413;28;20034;-80
2023/09/21 10:35:49;;;;;;;1.25;1.05;;;20.80;68.60;;;;;;4995497;28;20042;-80
2023/09/21 10:38:16;;;;;;;1.13;1.00;;;20.80;68.60;;;;;;4995573;28;20042;-80
2023/09/21 10:40:42;;;;;;;1.17;0.95;;;20.80;68.60;;;;;;4997018;28;20065;-87
2023/09/21 10:43:36;;;;;;;1.08;1.00;;;20.80;68.70;;;;;;4980675;28;20035;-81
2023/09/21 10:46:03;;;;;;;1.10;1.00;;;20.80;68.70;;;;;;4998243;28;20026;-82
2023/09/21 10:48:30;;;;;;;1.48;1.05;;;20.80;68.60;;;;;;5001639;28;20081;-82
2023/09/21 10:50:57;;;;;;;0.93;0.93;;;20.80;68.70;;;;;;5003761;28;20435;-80
2023/09/21 10:53:23;;;;;;;0.93;0.93;;;20.70;68.70;;;;;;5003280;28;20070;-79
2023/09/21 10:55:49;;;;;;;1.10;1.00;;;20.80;68.70;;;;;;4980555;28;20034;-82
2023/09/21 10:58:19;;;;;;;1.30;1.13;;;20.80;68.70;;;;;;4996197;28;20046;-81
2023/09/21 11:00:45;;;;;;;1.10;0.98;;;20.80;68.90;;;;;;4979408;28;20062;-83
2023/09/21 11:03:11;;;;;;;2.00;1.17;;;20.80;68.80;;;;;;4995402;28;20026;-81
2023/09/21 11:05:38;;;;;;;1.25;1.10;;;20.80;68.80;;;;;;5011670;28;20031;-81
2023/09/21 11:08:04;;;;;;;1.38;1.10;;;20.80;68.90;;;;;;4994972;28;20031;-81
2023/09/21 11:10:31;;;;;;;1.13;1.00;;;20.80;68.90;;;;;;4994605;28;20041;-80
2023/09/21 11:12:57;;;;;;;1.10;1.00;;;20.80;68.90;;;;;;5011079;28;20034;-80
2023/09/21 11:15:25;;;;;;;1.30;1.10;;;20.80;68.90;;;;;;4978487;28;20037;-81
2023/09/21 11:17:52;;;;;;;1.08;1.00;;;20.80;68.90;;;;;;4995583;28;20030;-81
2023/09/21 11:20:19;;;;;;;1.20;1.00;;;20.90;69.00;;;;;;4995713;28;20050;-81
2023/09/21 11:22:47;;;;;;;1.48;1.27;;;20.90;69.00;;;;;;4994299;28;20034;-81
2023/09/21 11:25:18;;;;;;;0.90;0.90;;;20.90;69.00;;;;;;5016045;28;20038;-81
2023/09/21 11:27:44;;;;;;;1.52;1.17;;;20.90;69.00;;;;;;4998841;28;20041;-81
2023/09/21 11:30:13;;;;;;;1.20;1.10;;;20.90;69.00;;;;;;4995518;28;20052;-81
2023/09/21 11:32:52;;;;;;;2.63;1.10;;;20.90;69.00;;;;;;4994543;28;20026;-81
2023/09/21 11:35:19;;;;;;;1.35;1.00;;;20.90;69.10;;;;;;5010676;28;20030;-81
2023/09/21 11:37:50;;;;;;;1.88;1.00;;;20.90;69.10;;;;;;4995706;28;20038;-81
2023/09/21 11:40:21;;;;;;;1.15;1.05;;;20.90;69.10;;;;;;4994266;28;20066;-81
2023/09/21 11:42:47;;;;;;;1.10;1.00;;;20.90;69.10;;;;;;4979529;28;20037;-84
2023/09/21 11:45:20;;;;;;;0.88;0.85;;;20.90;69.10;;;;;;4994602;28;20042;-82
2023/09/21 11:47:52;;;;;;;1.52;1.10;;;20.90;69.20;;;;;;4978200;28;20027;-80
2023/09/21 11:50:20;;;;;;;1.17;1.08;;;21.00;69.20;;;;;;4994019;28;20081;-81
2023/09/21 11:52:56;;;;;;;1.35;0.90;;;21.00;69.20;;;;;;4996971;28;20077;-81
2023/09/21 11:55:30;;;;;;;0.98;0.98;;;21.00;69.20;;;;;;5013711;28;20036;-81
2023/09/21 11:58:13;;;;;;;0.77;0.77;;;21.00;69.20;;;;;;4997672;28;20034;-82
2023/09/21 12:00:43;;;;;;;1.50;1.15;;;21.00;69.20;;;;;;5014002;28;20044;-81
2023/09/21 12:03:17;;;;;;;1.08;0.93;;;21.00;69.10;;;;;;4997059;28;20076;-82
2023/09/21 12:05:44;;;;;;;0.98;0.88;;;21.00;69.20;;;;;;4981011;28;20042;-81
2023/09/21 12:08:14;;;;;;;1.20;1.02;;;21.00;69.10;;;;;;4981076;28;20072;-81
2023/09/21 12:10:46;;;;;;;1.08;0.98;;;21.00;69.20;;;;;;5015029;28;20058;-81
2023/09/21 12:13:15;;;;;;;1.10;0.90;;;21.00;69.20;;;;;;4981531;28;20091;-81
2023/09/21 12:15:42;;;;;;;1.25;1.00;;;21.10;69.30;;;;;;5013809;28;20122;-80
2023/09/21 12:18:10;;;;;;;1.45;1.20;;;21.00;69.20;;;;;;4996767;28;20438;-81
2023/09/21 12:20:56;;;;;;;1.00;1.00;;;21.00;69.30;;;;;;4996519;28;20042;-81
2023/09/21 12:23:23;;;;;;;1.00;0.90;;;21.00;69.20;;;;;;5014676;28;20355;-80
2023/09/21 12:25:49;;;;;;;0.95;0.93;;;21.00;69.20;;;;;;4997236;28;20058;-81
2023/09/21 12:28:15;;;;;;;1.33;1.20;;;21.10;69.30;;;;;;5013969;28;20029;-82
2023/09/21 12:30:42;;;;;;;1.23;0.90;;;21.00;69.30;;;;;;4996391;28;20120;-83
2023/09/21 12:33:08;;;;;;;1.35;1.10;;;21.00;69.20;;;;;;5013531;28;20477;-80
2023/09/21 12:35:35;;;;;;;1.00;0.90;;;21.00;69.20;;;;;;4996678;28;20029;-80
2023/09/21 12:38:01;;;;;;;1.10;1.00;;;21.00;69.20;;;;;;4980115;28;20104;-80
2023/09/21 12:40:27;;;;;;;1.00;0.90;;;21.00;69.30;;;;;;4997136;28;20104;-81
2023/09/21 12:42:53;;;;;;;1.13;0.95;;;21.00;69.20;;;;;;5013739;28;20470;-82
2023/09/21 12:45:21;;;;;;;1.10;1.00;;;21.00;69.20;;;;;;4964529;28;20076;-82
2023/09/21 12:47:47;;;;;;;1.23;0.85;;;21.00;69.20;;;;;;5013538;28;20033;-80
2023/09/21 12:50:15;;;;;;;1.25;0.90;;;21.00;69.30;;;;;;4996749;28;20030;-82
2023/09/21 12:52:42;;;;;;;1.45;0.90;;;20.90;69.20;;;;;;5012852;28;20172;-80
2023/09/21 12:55:11;;;;;;;1.30;1.00;;;21.00;69.20;;;;;;4980853;28;20034;-80
2023/09/21 12:57:41;;;;;;;1.02;0.73;;;21.00;69.20;;;;;;4996642;28;20049;-80
2023/09/21 13:00:22;;;;;;;1.30;0.90;;;20.90;69.10;;;;;;4979927;28;20395;-81
2023/09/21 13:02:48;;;;;;;0.85;0.85;;;20.90;69.20;;;;;;5014188;28;20101;-81